Galveston, Texas
Current Conditions -  °F | °C
As of 8:52 PM on Thursday 18 Dec 2014 (Local Time) from KGLS Reporting Station
Haze Haze  
Wind Chill: 62°   Ceiling: 700
Heat Index: 62°   Visibility: 6mi
Dew Point: 61°   Wind: 14mph
Humidity: 96%   Direction: 40°NE
Pressure: 30.07"   Gusts: NA
Location:  29.3°N, 94.81°W
Report Text: KGLS 190252Z AUTO 04012KT 6SM BR OVC007 17/16 A3007 RMK AO1 SLP182 T01670161 51012
Loading
Personal Weather Stations






























Interactive Weather Map New forecast layout! Learn more

10-Day Weather Forecast

Advertisements
Track Severe Weather on mobile